createdAt,value
2018-11-14T00:02:21.307Z,98898.71
2018-11-14T00:04:48.598Z,98880.25
2018-11-14T00:07:15.561Z,98898.71
2018-11-14T00:09:42.555Z,98898.20
2018-11-14T00:12:09.534Z,98889.03
2018-11-14T00:14:36.501Z,98892.97
2018-11-14T00:17:03.709Z,98895.89
2018-11-14T00:19:30.677Z,98848.41
2018-11-14T00:21:57.581Z,98895.08
2018-11-14T00:24:24.574Z,98896.90
2018-11-14T00:26:52.072Z,98893.27
2018-11-14T00:29:18.611Z,98891.15
2018-11-14T00:31:45.527Z,98891.95
2018-11-14T00:34:12.498Z,98893.27
2018-11-14T00:36:39.472Z,98884.30
2018-11-14T00:39:06.396Z,98887.52
2018-11-14T00:41:33.324Z,98887.52
2018-11-14T00:44:00.262Z,98886.71
2018-11-14T00:46:27.232Z,98882.48
2018-11-14T00:48:54.134Z,98878.04
2018-11-14T00:51:21.086Z,98879.66
2018-11-14T00:53:48.015Z,98882.77
2018-11-14T00:56:14.945Z,98888.83
2018-11-14T00:58:41.931Z,98883.28
2018-11-14T01:01:08.863Z,98879.95
2018-11-14T01:03:35.756Z,98886.71
2018-11-14T01:06:02.695Z,98882.48
2018-11-14T01:08:29.619Z,98883.79
2018-11-14T01:10:56.589Z,98881.37
2018-11-14T01:13:23.621Z,98884.59
2018-11-14T01:15:50.562Z,98885.09
2018-11-14T01:18:17.566Z,98888.73
2018-11-14T01:20:44.542Z,98891.15
2018-11-14T01:23:11.513Z,98893.27
2018-11-14T01:25:38.430Z,98889.33
2018-11-14T01:28:05.400Z,98885.20
2018-11-14T01:30:32.316Z,98883.28
2018-11-14T01:32:59.346Z,98882.98
2018-11-14T01:35:26.263Z,98884.09
2018-11-14T01:37:53.186Z,98880.36
2018-11-14T01:40:21.101Z,98879.86
2018-11-14T01:42:49.336Z,98886.41
2018-11-14T01:45:16.685Z,98881.67
2018-11-14T01:47:43.689Z,98880.36
2018-11-14T01:50:10.869Z,98875.92
2018-11-14T01:52:38.141Z,98873.30
2018-11-14T01:55:05.133Z,98873.80
2018-11-14T01:57:32.065Z,98870.68
2018-11-14T01:59:59.024Z,98868.56
2018-11-14T02:02:25.969Z,98871.69
2018-11-14T02:04:52.929Z,98875.92
2018-11-14T02:07:20.349Z,98877.73
2018-11-14T02:09:47.321Z,98877.73
2018-11-14T02:12:14.326Z,98876.43
2018-11-14T02:14:41.455Z,98873.00
2018-11-14T02:17:08.398Z,98879.05
2018-11-14T02:19:35.502Z,98873.00
2018-11-14T02:22:02.758Z,98870.68
2018-11-14T02:24:29.857Z,98859.39
2018-11-14T02:26:56.845Z,98862.01
2018-11-14T02:29:23.768Z,98858.88
2018-11-14T02:31:50.810Z,98858.88
2018-11-14T02:34:17.723Z,98858.08
2018-11-14T02:36:44.680Z,98859.59
2018-11-14T02:39:11.673Z,98855.66
2018-11-14T02:41:38.631Z,98856.17
2018-11-14T02:44:05.563Z,98867.46
2018-11-14T02:46:32.479Z,98866.15
2018-11-14T02:48:59.439Z,98862.72
2018-11-14T02:51:27.623Z,98877.14
2018-11-14T02:53:54.737Z,98871.27
2018-11-14T02:56:21.682Z,98880.27
2018-11-14T02:58:48.764Z,98871.56
2018-11-14T03:01:15.691Z,98873.38
2018-11-14T03:03:42.599Z,98872.58
2018-11-14T03:06:09.536Z,98874.19
2018-11-14T03:08:36.442Z,98869.95
2018-11-14T03:11:03.348Z,98865.22
2018-11-14T03:13:30.224Z,98862.89
2018-11-14T03:15:57.158Z,98863.41
2018-11-14T03:18:24.041Z,98867.34
2018-11-14T03:20:50.943Z,98870.16
2018-11-14T03:23:17.866Z,98871.98
2018-11-14T03:25:44.752Z,98870.97
2018-11-14T03:28:11.651Z,98871.98
2018-11-14T03:30:38.537Z,98873.80
2018-11-14T03:33:05.449Z,98877.22
2018-11-14T03:35:37.622Z,98868.05
2018-11-14T03:38:04.551Z,98874.39
2018-11-14T03:40:31.455Z,98869.05
2018-11-14T03:42:58.381Z,98870.67
2018-11-14T03:45:25.268Z,98867.24
2018-11-14T03:47:52.162Z,98872.48
2018-11-14T03:50:19.057Z,98866.95
2018-11-14T03:52:45.954Z,98866.44
2018-11-14T03:55:12.849Z,98868.25
2018-11-14T03:57:39.728Z,98869.05
2018-11-14T04:00:06.669Z,98863.81
2018-11-14T04:02:33.563Z,98866.44
2018-11-14T04:05:00.490Z,98854.64
2018-11-14T04:07:27.465Z,98862.71
2018-11-14T04:09:54.370Z,98858.27
2018-11-14T04:12:21.296Z,98849.91
2018-11-14T04:14:48.185Z,98852.23
2018-11-14T04:17:15.091Z,98850.31
2018-11-14T04:19:41.977Z,98857.47
2018-11-14T04:22:08.865Z,98856.16
2018-11-14T04:24:35.804Z,98862.20
2018-11-14T04:27:02.740Z,98856.45
2018-11-14T04:29:29.661Z,98856.16
2018-11-14T04:31:56.647Z,98855.66
2018-11-14T04:34:23.627Z,98860.89
2018-11-14T04:36:50.786Z,98855.35
2018-11-14T04:39:17.951Z,98850.91
2018-11-14T04:41:44.910Z,98850.91
2018-11-14T04:44:11.954Z,98855.66
2018-11-14T04:46:39.192Z,98852.23
2018-11-14T04:49:06.188Z,98851.92
2018-11-14T04:51:33.279Z,98861.40
2018-11-14T04:54:00.510Z,98860.09
2018-11-14T04:56:27.677Z,98858.98
2018-11-14T04:58:54.660Z,98860.59
2018-11-14T05:01:21.638Z,98853.74
2018-11-14T05:03:48.865Z,98861.40
2018-11-14T05:06:15.864Z,98852.73
2018-11-14T05:08:42.812Z,98855.86
2018-11-14T05:11:09.793Z,98852.73
2018-11-14T05:13:36.745Z,98852.23
2018-11-14T05:16:03.744Z,98849.61
2018-11-14T05:18:33.829Z,98850.41
2018-11-14T05:21:00.777Z,98851.42
2018-11-14T05:23:27.790Z,98844.06
2018-11-14T05:25:54.716Z,98848.80
2018-11-14T05:28:21.649Z,98846.17
2018-11-14T05:30:48.645Z,98845.97
2018-11-14T05:33:15.628Z,98837.00
2018-11-14T05:35:42.573Z,98828.84
2018-11-14T05:38:09.524Z,98833.58
2018-11-14T05:40:36.482Z,98833.07
2018-11-14T05:43:03.482Z,98841.95
2018-11-14T05:45:30.551Z,98850.11
2018-11-14T05:47:57.421Z,98845.97
2018-11-14T05:50:24.737Z,98841.44
2018-11-14T05:52:51.722Z,98842.75
2018-11-14T05:55:18.797Z,98848.50
2018-11-14T05:57:45.777Z,98844.57
2018-11-14T06:00:14.837Z,98846.68
2018-11-14T06:02:41.816Z,98839.33
2018-11-14T06:05:09.167Z,98836.20
2018-11-14T06:07:36.515Z,98840.43
2018-11-14T06:10:03.477Z,98842.75
2018-11-14T06:12:30.389Z,98842.25
2018-11-14T06:14:57.381Z,98844.06
2018-11-14T06:17:24.379Z,98856.16
2018-11-14T06:19:51.349Z,98854.55
2018-11-14T06:22:18.306Z,98859.79
2018-11-14T06:24:45.275Z,98855.56
2018-11-14T06:27:12.262Z,98848.50
2018-11-14T06:29:39.280Z,98849.00
2018-11-14T06:32:06.241Z,98860.80
2018-11-14T06:34:33.149Z,98840.34
2018-11-14T06:37:00.101Z,98845.08
2018-11-14T06:39:27.046Z,98849.00
2018-11-14T06:41:54.066Z,98844.57
2018-11-14T06:44:21.113Z,98851.13
2018-11-14T06:46:48.067Z,98856.36
2018-11-14T06:49:15.041Z,98848.20
2018-11-14T06:51:42.086Z,98846.38
2018-11-14T06:54:09.066Z,98852.43
2018-11-14T06:56:36.046Z,98858.98
2018-11-14T06:59:03.192Z,98853.74
2018-11-14T07:01:29.997Z,98852.43
2018-11-14T07:03:57.373Z,98863.42
2018-11-14T07:06:24.333Z,98874.71
2018-11-14T07:08:51.272Z,98874.20
2018-11-14T07:11:18.305Z,98876.53
2018-11-14T07:13:45.239Z,98874.41
2018-11-14T07:16:12.222Z,98873.61
2018-11-14T07:18:39.198Z,98871.79
2018-11-14T07:21:06.215Z,98863.93
2018-11-14T07:23:33.214Z,98864.73
2018-11-14T07:26:00.201Z,98863.63
2018-11-14T07:28:27.175Z,98857.37
2018-11-14T07:30:54.198Z,98856.57
2018-11-14T07:33:21.201Z,98857.67
2018-11-14T07:35:48.134Z,98856.06
2018-11-14T07:38:15.133Z,98856.06
2018-11-14T07:40:42.074Z,98860.00
2018-11-14T07:43:09.038Z,98858.69
2018-11-14T07:45:35.952Z,98857.37
2018-11-14T07:48:02.933Z,98859.70
2018-11-14T07:50:29.847Z,98856.57
2018-11-14T07:52:56.810Z,98858.69
2018-11-14T07:55:23.757Z,98855.77
2018-11-14T07:57:50.686Z,98858.89
2018-11-14T08:00:17.816Z,98859.70
2018-11-14T08:02:44.887Z,98858.39
2018-11-14T08:05:11.875Z,98848.91
2018-11-14T08:07:38.898Z,98856.78
2018-11-14T08:10:05.784Z,98853.34
2018-11-14T08:12:32.741Z,98854.16
2018-11-14T08:14:59.727Z,98850.22
2018-11-14T08:17:26.638Z,98845.78
2018-11-14T08:19:53.620Z,98846.80
2018-11-14T08:22:20.611Z,98840.24
2018-11-14T08:24:47.617Z,98848.61
2018-11-14T08:27:14.578Z,98843.97
2018-11-14T08:29:41.559Z,98837.92
2018-11-14T08:32:08.545Z,98832.89
2018-11-14T08:34:35.519Z,98829.25
2018-11-14T08:37:02.503Z,98828.45
2018-11-14T08:39:29.490Z,98826.34
2018-11-14T08:41:56.455Z,98822.40
2018-11-14T08:44:23.414Z,98821.89
2018-11-14T08:46:50.459Z,98823.20
2018-11-14T08:49:17.369Z,98823.41
2018-11-14T08:51:44.333Z,98828.95
2018-11-14T08:54:11.321Z,98828.15
2018-11-14T08:56:38.306Z,98829.76
2018-11-14T08:59:05.311Z,98829.25
2018-11-14T09:01:32.283Z,98823.20
2018-11-14T09:03:59.249Z,98827.64
2018-11-14T09:06:26.288Z,98825.53
2018-11-14T09:08:53.320Z,98825.53
2018-11-14T09:11:20.359Z,98826.03
2018-11-14T09:13:47.260Z,98823.92
2018-11-14T09:16:14.202Z,98821.09
2018-11-14T09:18:41.160Z,98822.61
2018-11-14T09:21:08.199Z,98819.15
2018-11-14T09:23:35.227Z,98817.84
2018-11-14T09:26:02.206Z,98823.08
2018-11-14T09:28:29.192Z,98823.59
2018-11-14T09:30:56.189Z,98823.80
2018-11-14T09:33:23.673Z,98825.91
2018-11-14T09:35:50.778Z,98833.77
2018-11-14T09:38:17.839Z,98830.34
2018-11-14T09:40:44.874Z,98834.28
2018-11-14T09:43:11.847Z,98848.69
2018-11-14T09:45:38.890Z,98849.20
2018-11-14T09:48:05.934Z,98847.38
2018-11-14T09:50:33.306Z,98841.84
2018-11-14T09:53:05.679Z,98847.89
2018-11-14T09:55:32.581Z,98847.09
2018-11-14T09:57:59.581Z,98841.84
2018-11-14T10:00:28.706Z,98844.67
2018-11-14T10:02:55.728Z,98843.36
2018-11-14T10:05:23.764Z,98841.04
2018-11-14T10:07:50.753Z,98828.94
2018-11-14T10:10:19.068Z,98821.68
2018-11-14T10:12:46.004Z,98822.19
2018-11-14T10:15:16.261Z,98810.39
2018-11-14T10:17:43.951Z,98812.20
2018-11-14T10:20:12.674Z,98819.56
2018-11-14T10:22:40.016Z,98814.83
2018-11-14T10:25:06.939Z,98808.58
2018-11-14T10:27:33.842Z,98801.42
2018-11-14T10:30:00.738Z,98790.64
2018-11-14T10:32:27.645Z,98798.50
2018-11-14T10:34:54.533Z,98804.05
2018-11-14T10:37:21.541Z,98805.66
2018-11-14T10:39:48.554Z,98801.42
2018-11-14T10:42:15.470Z,98798.00
2018-11-14T10:44:42.357Z,98795.88
2018-11-14T10:47:09.269Z,98806.66
2018-11-14T10:49:36.200Z,98798.50
2018-11-14T10:52:03.172Z,98788.53
2018-11-14T10:54:30.137Z,98784.59
2018-11-14T10:56:57.021Z,98785.70
2018-11-14T10:59:23.904Z,98769.38
2018-11-14T11:01:56.113Z,98778.55
2018-11-14T11:04:28.378Z,98784.59
2018-11-14T11:07:00.510Z,98787.73
2018-11-14T11:09:32.735Z,98780.87
2018-11-14T11:12:04.879Z,98777.75
2018-11-14T11:15:35.677Z,98777.23
2018-11-14T11:18:05.780Z,98765.45
2018-11-14T11:20:32.701Z,98759.11
2018-11-14T11:22:59.598Z,98762.83
2018-11-14T11:25:26.523Z,98754.97
2018-11-14T11:27:53.414Z,98755.47
2018-11-14T11:30:20.310Z,98752.05
2018-11-14T11:32:47.213Z,98752.05
2018-11-14T11:35:14.162Z,98754.16
2018-11-14T11:37:41.099Z,98751.75
2018-11-14T11:40:08.059Z,98743.37
2018-11-14T11:42:34.992Z,98742.37
2018-11-14T11:45:01.927Z,98743.17
2018-11-14T11:47:28.829Z,98741.05
2018-11-14T11:49:55.723Z,98739.45
2018-11-14T11:52:22.639Z,98738.14
2018-11-14T11:54:49.562Z,98742.58
2018-11-14T11:57:16.465Z,98741.27
2018-11-14T11:59:43.468Z,98730.78
2018-11-14T12:02:10.303Z,98733.41
2018-11-14T12:04:37.212Z,98733.91
2018-11-14T12:07:04.125Z,98722.12
2018-11-14T12:09:31.048Z,98720.00
2018-11-14T12:11:57.965Z,98722.12
2018-11-14T12:14:24.871Z,98728.67
2018-11-14T12:16:51.783Z,98725.75
2018-11-14T12:19:18.772Z,98731.80
2018-11-14T12:21:45.613Z,98734.45
2018-11-14T12:24:12.497Z,98734.35
2018-11-14T12:26:39.393Z,98725.95
2018-11-14T12:29:06.290Z,98724.74
2018-11-14T12:31:33.190Z,98718.80
2018-11-14T12:34:00.111Z,98709.83
2018-11-14T12:36:27.012Z,98708.47
2018-11-14T12:38:54.009Z,98718.33
2018-11-14T12:41:20.854Z,98712.37
2018-11-14T12:43:47.791Z,98715.28
2018-11-14T12:46:14.668Z,98713.98
2018-11-14T12:48:41.567Z,98709.04
2018-11-14T12:51:08.468Z,98714.37
2018-11-14T12:53:35.370Z,98706.51
2018-11-14T12:56:02.299Z,98705.53
2018-11-14T12:58:29.209Z,98702.58
2018-11-14T13:00:56.109Z,98705.53
2018-11-14T13:03:23.020Z,98698.77
2018-11-14T13:05:49.947Z,98693.73
2018-11-14T13:08:16.836Z,98696.15
2018-11-14T13:10:43.721Z,98683.55
2018-11-14T13:13:10.640Z,98676.00
2018-11-14T13:15:37.573Z,98681.74
2018-11-14T13:18:04.499Z,98675.48
2018-11-14T13:20:31.458Z,98675.48
2018-11-14T13:22:58.365Z,98673.38
2018-11-14T13:25:25.265Z,98678.91
2018-11-14T13:27:52.148Z,98681.23
2018-11-14T13:30:22.550Z,98683.85
2018-11-14T13:32:50.019Z,98674.98
2018-11-14T13:35:18.124Z,98672.87
2018-11-14T13:37:46.006Z,98685.46
2018-11-14T13:40:12.930Z,98677.09
2018-11-14T13:42:39.821Z,98672.66
2018-11-14T13:45:06.701Z,98668.73
2018-11-14T13:47:33.629Z,98666.61
2018-11-14T13:50:00.591Z,98666.61
2018-11-14T13:52:27.462Z,98669.74
2018-11-14T13:54:54.360Z,98670.05
2018-11-14T13:57:21.299Z,98672.16
2018-11-14T13:59:48.292Z,98674.27
2018-11-14T14:02:15.185Z,98673.25
2018-11-14T14:04:42.123Z,98665.69
2018-11-14T14:07:09.021Z,98663.37
2018-11-14T14:09:35.926Z,98674.14
2018-11-14T14:12:02.831Z,98662.36
2018-11-14T14:14:29.734Z,98662.66
2018-11-14T14:16:56.634Z,98658.22
2018-11-14T14:19:23.766Z,98654.28
2018-11-14T14:21:51.005Z,98656.91
2018-11-14T14:24:17.928Z,98655.09
2018-11-14T14:26:44.822Z,98662.15
2018-11-14T14:29:11.712Z,98665.06
2018-11-14T14:31:38.702Z,98668.99
2018-11-14T14:34:05.634Z,98672.92
2018-11-14T14:36:32.547Z,98674.23
2018-11-14T14:38:59.451Z,98685.52
2018-11-14T14:41:26.340Z,98679.98
2018-11-14T14:43:53.314Z,98676.56
2018-11-14T14:46:20.228Z,98682.60
2018-11-14T14:48:47.177Z,98686.03
2018-11-14T14:51:14.042Z,98679.69
2018-11-14T14:53:40.944Z,98683.62
2018-11-14T14:56:07.841Z,98686.23
2018-11-14T14:58:34.752Z,98678.67
2018-11-14T15:01:01.681Z,98681.30
2018-11-14T15:03:28.607Z,98672.63
2018-11-14T15:05:55.501Z,98674.95
2018-11-14T15:08:22.391Z,98676.27
2018-11-14T15:10:49.306Z,98677.87
2018-11-14T15:13:16.190Z,98677.06
2018-11-14T15:15:43.132Z,98681.80
2018-11-14T15:18:10.008Z,98679.17
2018-11-14T15:20:36.912Z,98679.17
2018-11-14T15:23:03.834Z,98684.42
2018-11-14T15:25:30.734Z,98681.50
2018-11-14T15:27:57.695Z,98674.45
2018-11-14T15:30:26.925Z,98675.97
2018-11-14T15:32:53.829Z,98684.63
2018-11-14T15:35:20.843Z,98686.23
2018-11-14T15:37:48.175Z,98689.36
2018-11-14T15:40:16.355Z,98689.87
2018-11-14T15:42:43.361Z,98680.19
2018-11-14T15:45:11.286Z,98677.57
2018-11-14T15:47:38.689Z,98671.52
2018-11-14T15:50:05.569Z,98674.14
2018-11-14T15:52:32.459Z,98668.10
2018-11-14T15:54:59.373Z,98662.06
2018-11-14T15:57:26.291Z,98661.84
2018-11-14T15:59:53.187Z,98651.87
2018-11-14T16:02:20.070Z,98651.08
2018-11-14T16:04:46.975Z,98648.95
2018-11-14T16:07:13.885Z,98650.27
2018-11-14T16:09:40.779Z,98654.50
2018-11-14T16:12:07.705Z,98650.06
2018-11-14T16:14:34.607Z,98647.73
2018-11-14T16:17:01.567Z,98645.63
2018-11-14T16:19:28.486Z,98642.49
2018-11-14T16:21:55.387Z,98639.07
2018-11-14T16:24:22.338Z,98638.86
2018-11-14T16:26:49.221Z,98640.38
2018-11-14T16:29:16.110Z,98640.38
2018-11-14T16:31:43.139Z,98638.27
2018-11-14T16:34:09.982Z,98639.07
2018-11-14T16:36:36.912Z,98639.88
2018-11-14T16:39:04.787Z,98628.30
2018-11-14T16:41:31.665Z,98627.48
2018-11-14T16:43:58.564Z,98625.67
2018-11-14T16:46:25.487Z,98633.53
2018-11-14T16:48:52.374Z,98632.73
2018-11-14T16:51:19.291Z,98634.04
2018-11-14T16:53:46.182Z,98636.66
2018-11-14T16:56:13.169Z,98631.13
2018-11-14T16:58:40.075Z,98640.30
2018-11-14T17:01:06.980Z,98645.03
2018-11-14T17:03:33.962Z,98646.34
2018-11-14T17:06:00.818Z,98652.89
2018-11-14T17:08:27.824Z,98653.39
2018-11-14T17:10:54.726Z,98646.84
2018-11-14T17:13:21.638Z,98643.93
2018-11-14T17:15:48.530Z,98645.23
2018-11-14T17:18:15.429Z,98640.30
2018-11-14T17:20:42.337Z,98645.53
2018-11-14T17:23:09.222Z,98640.80
2018-11-14T17:25:36.206Z,98642.62
2018-11-14T17:28:03.231Z,98642.11
2018-11-14T17:30:30.150Z,98650.48
2018-11-14T17:32:57.315Z,98654.11
2018-11-14T17:35:24.258Z,98637.00
2018-11-14T17:37:51.151Z,98652.80
2018-11-14T17:40:21.286Z,98651.49
2018-11-14T17:42:49.062Z,98653.09
2018-11-14T17:45:16.518Z,98663.28
2018-11-14T17:47:43.520Z,98655.12
2018-11-14T17:50:10.466Z,98658.55
2018-11-14T17:52:37.415Z,98658.55
2018-11-14T17:55:04.318Z,98659.35
2018-11-14T17:57:31.223Z,98655.42
2018-11-14T17:59:58.109Z,98658.84
2018-11-14T18:02:25.035Z,98654.11
2018-11-14T18:04:51.924Z,98665.60
2018-11-14T18:07:18.865Z,98661.67
2018-11-14T18:09:45.739Z,98665.09
2018-11-14T18:12:12.643Z,98664.30
2018-11-14T18:14:39.563Z,98667.21
2018-11-14T18:17:06.493Z,98666.11
2018-11-14T18:19:33.370Z,98665.30
2018-11-14T18:22:00.291Z,98664.80
2018-11-14T18:24:27.191Z,98666.91
2018-11-14T18:26:54.092Z,98665.60
2018-11-14T18:29:21.011Z,98668.73
2018-11-14T18:31:47.920Z,98664.00
2018-11-14T18:34:14.808Z,98673.47
2018-11-14T18:36:41.739Z,98667.92
2018-11-14T18:39:08.650Z,98677.90
2018-11-14T18:41:35.552Z,98679.20
2018-11-14T18:44:02.458Z,98671.35
2018-11-14T18:46:29.342Z,98668.44
2018-11-14T18:48:56.268Z,98667.13
2018-11-14T18:51:23.176Z,98673.67
2018-11-14T18:53:50.092Z,98660.57
2018-11-14T18:56:16.971Z,98662.89
2018-11-14T18:58:43.867Z,98656.85
2018-11-14T19:01:10.764Z,98665.02
2018-11-14T19:03:37.669Z,98662.39
2018-11-14T19:06:04.560Z,98666.02
2018-11-14T19:08:31.490Z,98668.64
2018-11-14T19:10:58.381Z,98664.20
2018-11-14T19:13:25.294Z,98660.78
2018-11-14T19:15:52.180Z,98663.10
2018-11-14T19:18:19.080Z,98660.48
2018-11-14T19:20:46.022Z,98662.59
2018-11-14T19:23:12.911Z,98659.17
2018-11-14T19:25:39.832Z,98649.68
2018-11-14T19:28:06.744Z,98653.73
2018-11-14T19:30:34.945Z,98652.12
2018-11-14T19:33:02.397Z,98653.42
2018-11-14T19:35:29.313Z,98652.63
2018-11-14T19:37:56.847Z,98656.05
2018-11-14T19:40:25.226Z,98665.52
2018-11-14T19:42:52.130Z,98657.86
2018-11-14T19:45:20.353Z,98656.55
2018-11-14T19:47:47.279Z,98652.30
2018-11-14T19:50:15.287Z,98646.58
2018-11-14T19:52:42.434Z,98648.37
2018-11-14T19:55:09.342Z,98645.27
2018-11-14T19:57:36.226Z,98644.77
2018-11-14T20:00:03.596Z,98644.95
2018-11-14T20:02:30.906Z,98641.81
2018-11-14T20:04:57.823Z,98639.20
2018-11-14T20:07:24.728Z,98639.53
2018-11-14T20:09:51.618Z,98635.27
2018-11-14T20:12:18.524Z,98633.96
2018-11-14T20:14:45.418Z,98632.65
2018-11-14T20:17:12.418Z,98635.77
2018-11-14T20:19:39.342Z,98631.66
2018-11-14T20:22:06.236Z,98633.27
2018-11-14T20:24:33.180Z,98634.59
2018-11-14T20:27:00.048Z,98635.89
2018-11-14T20:29:26.971Z,98645.06
2018-11-14T20:31:53.864Z,98638.72
2018-11-14T20:34:20.768Z,98642.44
2018-11-14T20:36:47.662Z,98639.02
2018-11-14T20:39:14.557Z,98640.33
2018-11-14T20:41:41.737Z,98641.94
2018-11-14T20:44:08.635Z,98633.96
2018-11-14T20:46:35.529Z,98636.58
2018-11-14T20:49:02.438Z,98632.65
2018-11-14T20:51:29.366Z,98633.96
2018-11-14T20:53:56.254Z,98630.23
2018-11-14T20:56:23.182Z,98631.55
2018-11-14T20:58:50.075Z,98631.04
2018-11-14T21:01:16.977Z,98627.62
2018-11-14T21:03:43.905Z,98632.35
2018-11-14T21:06:10.789Z,98632.35
2018-11-14T21:08:37.720Z,98637.08
2018-11-14T21:11:04.605Z,98630.23
2018-11-14T21:13:31.490Z,98631.34
2018-11-14T21:15:58.448Z,98630.23
2018-11-14T21:18:25.347Z,98629.73
2018-11-14T21:20:52.282Z,98638.09
2018-11-14T21:23:19.276Z,98636.28
2018-11-14T21:25:46.225Z,98630.23
2018-11-14T21:28:13.186Z,98636.28
2018-11-14T21:30:40.163Z,98634.47
2018-11-14T21:33:07.116Z,98625.30
2018-11-14T21:35:35.765Z,98623.48
2018-11-14T21:38:03.982Z,98627.11
2018-11-14T21:40:30.956Z,98627.11
2018-11-14T21:42:57.882Z,98621.87
2018-11-14T21:45:26.027Z,98627.92
2018-11-14T21:47:58.201Z,98619.25
2018-11-14T21:50:26.249Z,98618.16
2018-11-14T21:52:53.225Z,98621.58
2018-11-14T21:55:20.198Z,98620.27
2018-11-14T21:57:47.333Z,98612.70
2018-11-14T22:00:16.522Z,98614.52
2018-11-14T22:02:46.012Z,98613.72
2018-11-14T22:05:13.068Z,98610.30
2018-11-14T22:07:40.013Z,98611.90
2018-11-14T22:10:07.043Z,98614.52
2018-11-14T22:12:34.030Z,98621.07
2018-11-14T22:15:00.987Z,98612.41
2018-11-14T22:17:28.028Z,98609.28
2018-11-14T22:19:54.966Z,98608.48
2018-11-14T22:22:21.901Z,98606.66
2018-11-14T22:24:48.977Z,98606.66
2018-11-14T22:27:15.884Z,98604.55
2018-11-14T22:29:42.806Z,98600.11
2018-11-14T22:32:09.777Z,98596.69
2018-11-14T22:34:36.803Z,98596.69
2018-11-14T22:37:03.706Z,98604.55
2018-11-14T22:39:30.647Z,98600.62
2018-11-14T22:41:57.609Z,98594.28
2018-11-14T22:44:24.573Z,98597.70
2018-11-14T22:46:51.495Z,98592.25
2018-11-14T22:49:18.424Z,98589.84
2018-11-14T22:51:45.380Z,98590.64
2018-11-14T22:54:12.378Z,98587.73
2018-11-14T22:56:39.328Z,98585.62
2018-11-14T22:59:06.275Z,98586.93
2018-11-14T23:01:33.219Z,98582.48
2018-11-14T23:04:00.197Z,98581.19
2018-11-14T23:06:27.150Z,98581.98
2018-11-14T23:08:54.108Z,98579.88
2018-11-14T23:11:21.021Z,98580.67
2018-11-14T23:13:47.991Z,98579.36
2018-11-14T23:16:14.913Z,98580.38
2018-11-14T23:18:41.829Z,98583.00
2018-11-14T23:21:08.794Z,98577.77
2018-11-14T23:23:35.755Z,98575.94
2018-11-14T23:26:02.709Z,98577.25
2018-11-14T23:28:29.636Z,98574.34
2018-11-14T23:30:56.590Z,98574.63
2018-11-14T23:33:23.566Z,98577.25
2018-11-14T23:35:50.497Z,98574.55
2018-11-14T23:38:17.406Z,98575.14
2018-11-14T23:40:44.317Z,98573.32
2018-11-14T23:43:11.294Z,98572.23
2018-11-14T23:45:38.185Z,98564.66
2018-11-14T23:48:05.125Z,98565.88
2018-11-14T23:50:32.829Z,98567.49
2018-11-14T23:53:00.843Z,98567.78
2018-11-14T23:55:28.621Z,98568.59
2018-11-14T23:57:55.569Z,98568.59
